Time;durP1;ratioP1;P1;durP2;ratioP2;P2;SDS_P1;SDS_P2;PMS_P1;PMS_P2;Temp;Humidity;BMP_temperature;BMP_pressure;BME280_temperature;BME280_humidity;BME280_pressure;Samples;Min_cycle;Max_cycle;Signal;HPM_P1;HPM_P2
2022/10/02 00:01:46;;;;;;;16.48;6.40;;;;;;;14.28;100.00;101320.47;10588740;28;20031;-81
2022/10/02 00:06:47;;;;;;;26.65;5.75;;;;;;;14.53;100.00;101326.94;10570719;28;20121;-82
2022/10/02 00:11:48;;;;;;;17.65;4.32;;;;;;;14.69;100.00;101333.00;10571632;28;20031;-82
2022/10/02 00:16:51;;;;;;;11.38;2.95;;;;;;;14.78;100.00;101337.19;10570708;28;20032;-81
2022/10/02 00:22:09;;;;;;;13.80;5.03;;;;;;;14.76;100.00;101331.91;10570588;28;20066;-81
2022/10/02 00:27:31;;;;;;;20.45;4.75;;;;;;;14.74;100.00;101339.50;10588378;28;20031;-82
2022/10/02 00:32:52;;;;;;;16.27;4.63;;;;;;;14.83;100.00;101351.81;10589261;28;20028;-82
2022/10/02 00:37:59;;;;;;;32.22;5.55;;;;;;;14.92;100.00;101359.78;10584193;28;20034;-80
2022/10/02 00:43:11;;;;;;;16.15;3.58;;;;;;;15.02;100.00;101351.97;10614275;28;20058;-80
2022/10/02 00:48:19;;;;;;;11.98;4.60;;;;;;;15.14;100.00;101350.22;10610523;28;20036;-81
2022/10/02 00:53:45;;;;;;;13.93;3.97;;;;;;;15.19;100.00;101347.72;10569528;28;20417;-81
2022/10/02 00:59:02;;;;;;;19.00;4.93;;;;;;;15.11;100.00;101348.78;10569747;28;20118;-81
2022/10/02 01:04:05;;;;;;;21.05;4.65;;;;;;;15.07;100.00;101350.28;10569899;28;20031;-81
2022/10/02 01:09:05;;;;;;;15.32;4.38;;;;;;;15.14;100.00;101358.41;10573303;28;20045;-82
2022/10/02 01:14:05;;;;;;;20.48;6.70;;;;;;;15.17;100.00;101357.16;10557655;28;20038;-81
2022/10/02 01:19:12;;;;;;;14.70;4.88;;;;;;;15.08;100.00;101346.47;10569306;28;20065;-80
2022/10/02 01:24:24;;;;;;;;;;;;;;;15.07;100.00;101358.44;10578101;28;20039;-82
2022/10/02 01:29:24;;;;;;;19.30;5.03;;;;;;;15.05;100.00;101359.72;10582142;28;19908;-82
2022/10/02 01:34:25;;;;;;;16.77;5.05;;;;;;;14.94;100.00;101360.41;10561263;28;20028;-82
2022/10/02 01:39:25;;;;;;;21.10;4.85;;;;;;;14.86;100.00;101367.75;10566598;28;20390;-81
2022/10/02 01:44:26;;;;;;;10.77;3.50;;;;;;;14.81;100.00;101369.47;10585852;28;20051;-83
2022/10/02 01:49:38;;;;;;;9.82;4.07;;;;;;;14.75;100.00;101379.31;10585720;28;20043;-81
2022/10/02 01:54:42;;;;;;;28.60;4.15;;;;;;;14.65;100.00;101384.38;10568233;28;20031;-82
2022/10/02 02:00:07;;;;;;;12.95;3.60;;;;;;;14.69;100.00;101395.69;10585049;28;20076;-81
2022/10/02 02:05:07;;;;;;;23.38;4.72;;;;;;;14.68;100.00;101385.81;10584213;28;20028;-80
2022/10/02 02:10:39;;;;;;;5.03;3.70;;;;;;;14.64;100.00;101390.88;10583604;28;20039;-81
2022/10/02 02:15:52;;;;;;;14.52;3.45;;;;;;;14.49;100.00;101395.69;10569683;28;20405;-81
2022/10/02 02:20:56;;;;;;;14.50;4.13;;;;;;;14.61;100.00;101389.44;10585319;28;20024;-81
2022/10/02 02:25:59;;;;;;;14.27;3.10;;;;;;;14.63;100.00;101392.75;10584649;28;20386;-82
2022/10/02 02:31:00;;;;;;;13.10;4.63;;;;;;;14.73;100.00;101389.59;10556627;28;20118;-82
2022/10/02 02:36:03;;;;;;;17.38;5.50;;;;;;;14.76;100.00;101407.41;10568154;28;20031;-81
2022/10/02 02:41:07;;;;;;;7.53;3.67;;;;;;;14.80;100.00;101395.03;10582433;28;20055;-81
2022/10/02 02:46:17;;;;;;;11.02;4.22;;;;;;;14.93;100.00;101403.16;10565709;28;20447;-81
2022/10/02 02:51:20;;;;;;;10.60;3.75;;;;;;;14.99;100.00;101404.22;10566377;28;20023;-81
2022/10/02 02:56:20;;;;;;;14.52;4.70;;;;;;;14.98;100.00;101410.72;10549521;28;20028;-81
2022/10/02 03:01:21;;;;;;;10.43;4.38;;;;;;;14.87;100.00;101415.78;10569906;28;20027;-81
2022/10/02 03:06:44;;;;;;;7.32;3.30;;;;;;;14.83;100.00;101409.06;10575454;28;20379;-81
2022/10/02 03:12:13;;;;;;;7.72;3.00;;;;;;;14.64;100.00;101415.41;10575426;28;20023;-81
2022/10/02 03:17:50;;;;;;;17.23;3.58;;;;;;;14.36;100.00;101423.81;10579942;28;20126;-82
2022/10/02 03:23:08;;;;;;;6.70;3.33;;;;;;;14.26;100.00;101423.34;10532092;28;20054;-81
2022/10/02 03:28:20;;;;;;;12.90;3.88;;;;;;;14.14;100.00;101425.88;10622818;28;20036;-81
2022/10/02 03:33:21;;;;;;;17.63;4.75;;;;;;;14.09;100.00;101417.47;10624686;28;20027;-80
2022/10/02 03:38:22;;;;;;;16.10;4.10;;;;;;;14.02;100.00;101417.47;10563841;28;20031;-81
2022/10/02 03:43:24;;;;;;;9.05;2.55;;;;;;;13.97;100.00;101419.97;10589352;28;20372;-81
2022/10/02 03:48:24;;;;;;;15.18;4.93;;;;;;;13.80;100.00;101426.88;10589288;28;20371;-80
2022/10/02 03:53:28;;;;;;;18.10;4.50;;;;;;;13.80;100.00;101415.97;10590267;28;20070;-81
2022/10/02 03:58:29;;;;;;;10.20;4.28;;;;;;;13.83;100.00;101418.28;10589270;28;20036;-81
2022/10/02 04:03:37;;;;;;;18.98;3.70;;;;;;;13.79;100.00;101422.47;10557053;28;20489;-81
2022/10/02 04:09:00;;;;;;;12.75;3.20;;;;;;;13.74;100.00;101409.47;10567185;28;20032;-81
2022/10/02 04:14:11;;;;;;;26.08;4.82;;;;;;;13.82;100.00;101417.44;10572121;28;20023;-82
2022/10/02 04:19:32;;;;;;;13.68;3.58;;;;;;;13.71;100.00;101421.59;10573858;28;20039;-81
2022/10/02 04:24:38;;;;;;;15.25;3.47;;;;;;;13.63;100.00;101429.13;10556319;28;20069;-79
2022/10/02 04:29:57;;;;;;;14.77;2.90;;;;;;;13.64;100.00;101438.97;10589754;28;20032;-81
2022/10/02 04:34:57;;;;;;;12.52;3.72;;;;;;;13.68;100.00;101435.63;10572395;28;20066;-81
2022/10/02 04:40:04;;;;;;;13.00;4.80;;;;;;;13.82;100.00;101432.94;10554750;28;20035;-81
2022/10/02 04:45:17;;;;;;;20.35;4.60;;;;;;;14.10;100.00;101435.50;10570702;28;20487;-82
2022/10/02 04:50:30;;;;;;;8.80;3.50;;;;;;;14.13;100.00;101457.69;10586226;28;20120;-82
2022/10/02 04:55:46;;;;;;;5.40;3.00;;;;;;;14.13;100.00;101476.75;10553836;28;20036;-81
2022/10/02 05:00:48;;;;;;;11.15;4.15;;;;;;;13.98;100.00;101486.19;10555302;28;20028;-81
2022/10/02 05:05:57;;;;;;;15.52;3.25;;;;;;;14.05;100.00;101495.19;10569511;28;20118;-82
2022/10/02 05:11:39;;;;;;;4.70;2.13;;;;;;;14.18;100.00;101500.69;10573099;28;20024;-83
2022/10/02 05:16:45;;;;;;;13.55;4.05;;;;;;;14.03;100.00;101500.84;10559236;28;20048;-82
2022/10/02 05:22:00;;;;;;;23.20;4.30;;;;;;;13.86;100.00;101499.56;10593125;28;20081;-83
2022/10/02 05:27:12;;;;;;;29.60;3.40;;;;;;;13.82;100.00;101506.47;10597220;28;20030;-83
2022/10/02 05:32:30;;;;;;;7.13;3.75;;;;;;;13.85;100.00;101517.78;10595127;28;20032;-83
2022/10/02 05:37:46;;;;;;;12.07;3.42;;;;;;;13.99;100.00;101510.47;10560414;28;20030;-81
2022/10/02 05:42:56;;;;;;;7.38;3.00;;;;;;;14.00;100.00;101505.88;10590314;28;20048;-83
2022/10/02 05:48:12;;;;;;;6.75;3.97;;;;;;;14.06;100.00;101524.94;10587558;28;20036;-81
2022/10/02 05:53:31;;;;;;;9.20;4.17;;;;;;;14.17;100.00;101531.69;10552394;28;20028;-83
2022/10/02 05:58:39;;;;;;;5.82;2.08;;;;;;;14.17;100.00;101543.44;10587767;28;20027;-82
2022/10/02 06:03:50;;;;;;;8.43;3.67;;;;;;;14.15;100.00;101540.06;10569475;28;20531;-83
2022/10/02 06:09:08;;;;;;;6.93;2.97;;;;;;;14.08;100.00;101536.47;10576917;28;20396;-82
2022/10/02 06:14:11;;;;;;;12.55;3.60;;;;;;;14.01;100.00;101545.66;10618079;28;20016;-81
2022/10/02 06:19:18;;;;;;;11.40;2.78;;;;;;;14.04;100.00;101551.56;10632682;28;20047;-80
2022/10/02 06:24:29;;;;;;;;;;;;;;;14.14;100.00;101567.50;10583675;28;20032;-83
2022/10/02 06:29:40;;;;;;;7.53;3.88;;;;;;;14.23;100.00;101571.72;10557717;28;19960;-82
2022/10/02 06:34:40;;;;;;;14.70;3.55;;;;;;;14.27;100.00;101572.16;10582456;28;20051;-82
2022/10/02 06:40:19;;;;;;;20.02;4.18;;;;;;;14.31;100.00;101578.88;10624721;28;20027;-81
2022/10/02 06:45:38;;;;;;;12.45;3.47;;;;;;;14.38;100.00;101585.16;10599102;28;20468;-82
2022/10/02 06:50:43;;;;;;;21.63;5.28;;;;;;;14.54;100.00;101586.69;10565898;28;20100;-82
2022/10/02 06:55:48;;;;;;;24.77;4.05;;;;;;;14.82;100.00;101586.53;10565798;28;20027;-82
2022/10/02 07:01:03;;;;;;;18.52;3.92;;;;;;;15.69;100.00;101590.03;10566007;28;20055;-81
2022/10/02 07:06:38;;;;;;;12.98;3.95;;;;;;;15.78;100.00;101603.22;10565047;28;20115;-81
2022/10/02 07:11:49;;;;;;;14.48;2.80;;;;;;;15.46;100.00;101606.84;10584338;28;20028;-81
2022/10/02 07:17:04;;;;;;;14.85;4.07;;;;;;;15.32;100.00;101612.34;10583883;28;20110;-82
2022/10/02 07:22:32;;;;;;;17.63;4.78;;;;;;;15.28;100.00;101607.50;10566460;28;20443;-81
2022/10/02 07:28:01;;;;;;;9.45;4.25;;;;;;;15.27;100.00;101616.75;10567761;28;20026;-83
2022/10/02 07:33:05;;;;;;;15.98;5.25;;;;;;;15.34;100.00;101617.56;10534222;28;20058;-81
2022/10/02 07:38:43;;;;;;;33.40;4.45;;;;;;;15.49;100.00;101614.63;10574465;28;20028;-81
2022/10/02 07:43:56;;;;;;;4.63;2.90;;;;;;;15.78;100.00;101616.88;10614005;28;20101;-76
2022/10/02 07:49:20;;;;;;;12.65;5.05;;;;;;;16.07;100.00;101632.97;10605798;28;20047;-81
2022/10/02 07:54:57;;;;;;;9.82;3.75;;;;;;;16.14;100.00;101633.78;10593568;28;20043;-83
2022/10/02 08:00:02;;;;;;;23.83;3.22;;;;;;;16.18;100.00;101637.78;10559888;28;20044;-83
2022/10/02 08:05:06;;;;;;;11.07;3.30;;;;;;;16.34;100.00;101641.91;10557184;28;20023;-83
2022/10/02 08:10:07;;;;;;;10.38;4.20;;;;;;;16.45;100.00;101650.25;10558722;28;20024;-82
2022/10/02 08:15:14;;;;;;;15.88;4.35;;;;;;;16.76;100.00;101658.75;10576675;28;20024;-83
2022/10/02 08:20:30;;;;;;;19.00;4.43;;;;;;;17.01;100.00;101670.56;10592072;28;20092;-82
2022/10/02 08:25:44;;;;;;;9.83;4.30;;;;;;;17.12;100.00;101680.78;10571586;28;20077;-82
2022/10/02 08:30:45;;;;;;;6.82;2.95;;;;;;;17.26;100.00;101688.88;10573515;28;20267;-83
2022/10/02 08:36:17;;;;;;;9.32;2.95;;;;;;;17.92;100.00;101695.69;10589439;28;20036;-82
2022/10/02 08:41:41;;;;;;;7.40;3.83;;;;;;;18.44;100.00;101704.38;10572584;28;20039;-82
2022/10/02 08:46:48;;;;;;;10.13;2.40;;;;;;;18.95;100.00;101708.56;10596757;28;20378;-76
2022/10/02 08:51:49;;;;;;;11.88;2.97;;;;;;;18.70;100.00;101692.22;10571591;28;20031;-80
2022/10/02 08:57:21;;;;;;;12.25;3.42;;;;;;;18.36;100.00;101706.34;10586921;28;20445;-80
2022/10/02 09:02:56;;;;;;;12.95;3.67;;;;;;;18.38;100.00;101713.50;10589714;28;20023;-73
2022/10/02 09:08:21;;;;;;;3.03;2.05;;;;;;;18.31;100.00;101727.28;10609552;28;20024;-76
2022/10/02 09:14:04;;;;;;;7.55;3.67;;;;;;;18.25;100.00;101730.94;10588607;28;20115;-78
2022/10/02 09:19:18;;;;;;;11.38;3.38;;;;;;;18.77;100.00;101732.25;10574631;28;20130;-78
2022/10/02 09:24:59;;;;;;;4.20;2.65;;;;;;;19.55;100.00;101741.41;10568888;28;20031;-81
2022/10/02 09:30:22;;;;;;;4.60;3.42;;;;;;;19.80;94.41;101741.22;10568002;28;20033;-78
2022/10/02 09:36:00;;;;;;;14.25;3.30;;;;;;;20.77;94.75;101742.53;10569240;28;20031;-78
2022/10/02 09:41:12;;;;;;;15.43;4.25;;;;;;;21.48;93.05;101752.13;10584918;28;20088;-78
2022/10/02 09:46:43;;;;;;;7.50;2.67;;;;;;;21.17;92.29;101759.00;10577503;28;20047;-78
2022/10/02 09:51:58;;;;;;;6.20;3.40;;;;;;;20.38;94.53;101758.75;10584490;28;20106;-76
2022/10/02 09:57:27;;;;;;;7.68;3.63;;;;;;;20.80;94.78;101761.31;10567272;28;20030;-74
2022/10/02 10:02:38;;;;;;;19.83;4.05;;;;;;;22.38;89.96;101761.25;10583832;28;20028;-75
2022/10/02 10:07:57;;;;;;;9.55;2.20;;;;;;;21.69;90.53;101777.28;10584766;28;20031;-70
2022/10/02 10:13:35;;;;;;;7.93;2.95;;;;;;;20.57;88.86;101790.56;10584071;28;20032;-72
2022/10/02 10:19:01;;;;;;;5.20;3.28;;;;;;;21.02;86.92;101809.09;10517381;28;20498;-72
2022/10/02 10:24:19;;;;;;;3.13;2.33;;;;;;;21.90;85.50;101798.59;10534068;28;20360;-79
2022/10/02 10:29:26;;;;;;;5.70;2.75;;;;;;;21.27;83.63;101808.75;10481177;28;20454;-79
2022/10/02 10:34:29;;;;;;;;;;;;;;;21.28;85.43;101804.94;10541816;28;20024;-78
2022/10/02 10:39:51;;;;;;;10.75;3.33;;;;;;;21.11;86.47;101812.31;10543101;28;19955;-78
2022/10/02 10:45:00;;;;;;;5.05;2.13;;;;;;;21.25;87.23;101819.22;10574110;28;20048;-74
2022/10/02 10:50:07;;;;;;;3.25;2.60;;;;;;;20.98;89.93;101818.13;10587874;28;20103;-78
2022/10/02 10:55:32;;;;;;;5.32;2.90;;;;;;;20.56;89.89;101835.69;10535238;28;20477;-78
2022/10/02 11:00:55;;;;;;;6.03;2.88;;;;;;;20.48;87.41;101846.19;10583916;28;20035;-78
2022/10/02 11:06:04;;;;;;;13.88;3.95;;;;;;;22.26;84.10;101835.03;10583284;28;20027;-78
2022/10/02 11:11:37;;;;;;;8.55;3.30;;;;;;;22.24;82.03;101845.50;10566905;28;20111;-75
2022/10/02 11:17:05;;;;;;;4.60;2.95;;;;;;;22.13;82.21;101852.72;10561964;28;20035;-75
2022/10/02 11:22:24;;;;;;;5.20;2.13;;;;;;;22.22;85.58;101853.19;10570858;28;20066;-75
2022/10/02 11:27:34;;;;;;;8.35;3.25;;;;;;;21.56;85.85;101855.63;10520524;28;20049;-76
2022/10/02 11:32:47;;;;;;;9.43;3.15;;;;;;;21.70;87.26;101854.22;10572206;28;20055;-75
2022/10/02 11:38:06;;;;;;;6.18;3.22;;;;;;;22.49;85.14;101856.91;10594368;28;20063;-76
2022/10/02 11:43:28;;;;;;;6.95;3.03;;;;;;;22.41;85.71;101859.25;10591510;28;20418;-75
2022/10/02 11:48:50;;;;;;;4.45;2.97;;;;;;;22.66;77.81;101858.78;10601473;28;20117;-78
2022/10/02 11:54:11;;;;;;;8.45;3.42;;;;;;;23.50;78.20;101872.25;10591268;28;20092;-76
2022/10/02 11:59:17;;;;;;;6.60;3.38;;;;;;;23.27;76.61;101867.03;10588570;28;20165;-78
2022/10/02 12:04:37;;;;;;;6.03;2.45;;;;;;;23.67;78.46;101877.66;10590582;28;20023;-77
2022/10/02 12:10:23;;;;;;;10.75;3.40;;;;;;;25.03;77.64;101878.13;10572433;28;20080;-77
2022/10/02 12:15:38;;;;;;;11.35;3.53;;;;;;;23.51;79.45;101889.66;10524616;28;20073;-77
2022/10/02 12:32:35;;;;;;;8.95;3.15;;;;;;;19.68;90.77;101906.09;10587367;28;20040;-75
2022/10/02 12:37:42;;;;;;;12.40;3.72;;;;;;;19.68;91.86;101910.75;10441806;28;20166;-75
2022/10/02 12:43:09;;;;;;;14.45;4.20;;;;;;;19.65;89.91;101913.97;10547276;28;20048;-74
2022/10/02 12:48:24;;;;;;;11.63;2.57;;;;;;;21.13;87.41;101918.41;10580768;28;20041;-74
2022/10/02 12:53:43;;;;;;;7.25;2.92;;;;;;;22.33;85.32;101935.00;10587001;28;20316;-74
2022/10/02 12:59:05;;;;;;;5.07;3.17;;;;;;;23.50;83.61;101918.41;10587705;28;20027;-74
2022/10/02 13:04:29;;;;;;;6.65;2.80;;;;;;;23.99;80.74;101926.69;10587726;28;20032;-74
2022/10/02 13:10:24;;;;;;;5.00;3.13;;;;;;;24.03;83.29;101933.38;10578326;28;20134;-75
2022/10/02 13:15:35;;;;;;;9.55;3.20;;;;;;;22.93;83.88;101936.19;10501714;28;20039;-75
2022/10/02 13:20:54;;;;;;;3.88;2.65;;;;;;;21.82;80.08;101943.25;10585282;28;20390;-74
2022/10/02 13:26:03;;;;;;;4.55;2.78;;;;;;;22.55;83.13;101939.78;10570446;28;20034;-75
2022/10/02 13:31:18;;;;;;;7.75;3.15;;;;;;;23.17;85.07;101945.13;10586174;28;20463;-74
2022/10/02 13:36:22;;;;;;;12.73;3.58;;;;;;;22.91;87.12;101955.81;10568381;28;20483;-73
2022/10/02 13:41:51;;;;;;;5.63;3.20;;;;;;;22.35;84.51;101954.94;10567130;28;20027;-73
2022/10/02 13:47:00;;;;;;;9.13;3.65;;;;;;;21.82;84.75;101962.53;10585590;28;20050;-75
2022/10/02 13:52:09;;;;;;;5.80;3.22;;;;;;;22.41;82.72;101964.97;10584866;28;20031;-73
2022/10/02 13:57:19;;;;;;;5.45;2.83;;;;;;;22.04;81.62;101975.59;10566949;28;20467;-75
2022/10/02 14:02:34;;;;;;;8.70;2.28;;;;;;;21.54;78.44;101981.81;10585021;28;20455;-75
2022/10/02 14:07:45;;;;;;;4.47;3.22;;;;;;;21.01;79.58;101969.91;10583323;28;20032;-75
2022/10/02 14:12:48;;;;;;;4.78;3.13;;;;;;;20.98;79.07;101988.84;10549601;28;20024;-75
2022/10/02 14:18:17;;;;;;;10.38;2.70;;;;;;;19.89;80.39;101978.13;10566546;28;20487;-74
2022/10/02 14:23:47;;;;;;;13.52;3.28;;;;;;;19.44;82.45;101994.97;10533654;28;20020;-75
2022/10/02 14:29:02;;;;;;;9.75;3.83;;;;;;;19.81;83.75;101990.25;10553051;28;20099;-74
2022/10/02 14:34:51;;;;;;;5.55;1.92;;;;;;;19.71;80.36;101988.06;10479403;28;20040;-74
2022/10/02 14:39:52;;;;;;;12.43;3.42;;;;;;;19.16;81.44;101993.59;10581685;28;20371;-74
2022/10/02 14:45:06;;;;;;;10.52;3.33;;;;;;;19.23;82.86;101999.84;10562332;28;20115;-75
2022/10/02 14:50:13;;;;;;;3.25;1.95;;;;;;;18.83;80.38;102010.41;10596484;28;20036;-74
2022/10/02 14:55:14;;;;;;;;;;;;;;;18.67;84.14;102010.94;10589681;28;20028;-74
2022/10/02 15:00:19;;;;;;;8.15;2.53;;;;;;;18.10;83.43;102032.88;10594266;28;20404;-74
2022/10/02 15:05:35;;;;;;;14.02;3.95;;;;;;;17.58;80.82;102040.22;10556749;28;20038;-74
2022/10/02 15:10:35;;;;;;;8.73;3.58;;;;;;;17.19;81.83;102047.50;10573143;28;20399;-74
2022/10/02 15:21:20;;;;;;;12.50;3.25;;;;;;;16.72;83.45;102052.16;10575726;28;20027;-74
2022/10/02 15:26:49;;;;;;;6.88;3.35;;;;;;;16.82;82.71;102054.53;10540092;28;20028;-74
2022/10/02 15:31:51;;;;;;;8.15;3.05;;;;;;;16.58;81.13;102073.19;10591671;28;20039;-74
2022/10/02 15:37:00;;;;;;;12.27;4.00;;;;;;;16.37;82.36;102081.56;10590470;28;20062;-74
2022/10/02 15:42:04;;;;;;;7.68;3.00;;;;;;;16.20;83.96;102081.94;10590728;28;20031;-74
2022/10/02 15:47:26;;;;;;;13.20;3.67;;;;;;;16.08;84.75;102099.13;10592378;28;20052;-74
2022/10/02 15:52:49;;;;;;;7.90;3.15;;;;;;;15.92;85.50;102101.19;10573139;28;20031;-74
2022/10/02 15:58:28;;;;;;;8.45;2.20;;;;;;;15.81;85.20;102099.88;10554314;28;20031;-74
2022/10/02 16:03:40;;;;;;;12.40;3.80;;;;;;;15.66;83.72;102118.25;10590422;28;20040;-74
2022/10/02 16:08:56;;;;;;;4.60;2.65;;;;;;;15.57;84.45;102122.19;10587894;28;20077;-74
2022/10/02 16:14:38;;;;;;;16.50;3.75;;;;;;;15.42;85.56;102127.78;10590484;28;20031;-74
2022/10/02 16:19:38;;;;;;;8.30;2.35;;;;;;;15.27;86.17;102135.22;10569195;28;20039;-74
2022/10/02 16:24:41;;;;;;;8.07;3.42;;;;;;;15.19;87.09;102138.94;10591088;28;20031;-74
2022/10/02 16:30:01;;;;;;;15.60;3.65;;;;;;;15.09;87.33;102147.47;10590636;28;20188;-74
2022/10/02 16:35:10;;;;;;;17.27;5.55;;;;;;;15.04;87.29;102166.31;10570368;28;20370;-74
2022/10/02 16:40:21;;;;;;;4.22;2.28;;;;;;;14.95;87.43;102174.81;10554091;28;20039;-74
2022/10/02 16:45:27;;;;;;;9.20;3.28;;;;;;;14.84;87.75;102185.22;10571321;28;20134;-74
2022/10/02 16:50:44;;;;;;;10.35;3.25;;;;;;;14.71;88.71;102186.94;10588230;28;20035;-74
2022/10/02 16:55:48;;;;;;;12.25;2.50;;;;;;;14.51;88.94;102179.38;10571595;28;20051;-74
2022/10/02 17:00:55;;;;;;;6.88;3.35;;;;;;;14.39;89.92;102198.13;10568581;28;20032;-74
2022/10/02 17:06:18;;;;;;;20.88;4.43;;;;;;;14.27;89.77;102209.69;10588749;28;20032;-74
2022/10/02 17:11:21;;;;;;;5.97;3.08;;;;;;;14.15;90.15;102218.31;10589287;28;20074;-74
2022/10/02 17:16:26;;;;;;;7.28;2.30;;;;;;;14.12;90.96;102226.88;10570594;28;20027;-74
2022/10/02 17:21:38;;;;;;;8.00;4.35;;;;;;;14.00;91.73;102227.53;10555502;28;20032;-74
2022/10/02 17:27:15;;;;;;;6.70;3.63;;;;;;;14.04;91.79;102243.34;10555645;28;20034;-74
2022/10/02 17:32:32;;;;;;;24.70;3.93;;;;;;;13.93;91.88;102257.41;10559497;28;20059;-74
2022/10/02 17:37:51;;;;;;;7.65;3.55;;;;;;;13.83;92.35;102256.84;10582307;28;20522;-73
2022/10/02 17:43:07;;;;;;;9.38;3.33;;;;;;;13.79;92.53;102272.69;10588747;28;20048;-74
2022/10/02 17:48:27;;;;;;;5.35;2.10;;;;;;;13.69;92.74;102272.13;10569424;28;20084;-74
2022/10/02 17:59:24;;;;;;;8.13;2.75;;;;;;;13.66;93.34;102286.94;10583454;28;20028;-74
2022/10/02 18:04:55;;;;;;;12.57;4.28;;;;;;;13.53;93.28;102288.56;10585069;28;20062;-74
2022/10/02 18:10:02;;;;;;;5.68;2.30;;;;;;;13.42;94.19;102293.44;10567875;28;20024;-74
2022/10/02 18:15:20;;;;;;;11.30;2.85;;;;;;;13.34;93.62;102298.94;10584191;28;20097;-74
2022/10/02 18:20:33;;;;;;;9.60;3.00;;;;;;;13.31;94.46;102295.75;10583407;28;20114;-74
2022/10/02 18:25:43;;;;;;;6.32;2.80;;;;;;;13.25;95.01;102303.59;10583908;28;20471;-74
2022/10/02 18:30:48;;;;;;;14.13;4.03;;;;;;;13.21;94.78;102312.28;10583459;28;20426;-74
2022/10/02 18:36:16;;;;;;;17.55;3.78;;;;;;;13.16;94.92;102312.81;10564820;28;20471;-74
2022/10/02 18:41:48;;;;;;;5.65;3.70;;;;;;;13.04;95.16;102314.22;10560824;28;20437;-74
2022/10/02 18:46:54;;;;;;;13.07;2.88;;;;;;;13.01;95.41;102320.03;10586745;28;20051;-74
2022/10/02 18:52:36;;;;;;;12.07;3.80;;;;;;;12.98;96.79;102342.13;10583227;28;20031;-74
2022/10/02 18:57:44;;;;;;;18.42;5.22;;;;;;;13.04;96.83;102338.72;10583463;28;20050;-74
2022/10/02 19:02:51;;;;;;;6.65;3.17;;;;;;;13.10;96.31;102354.31;10549167;28;20023;-74
2022/10/02 19:08:02;;;;;;;5.55;3.35;;;;;;;13.07;96.36;102354.66;10564755;28;20035;-74
2022/10/02 19:13:11;;;;;;;7.47;4.10;;;;;;;13.07;96.77;102364.69;10564572;28;20093;-74
2022/10/02 19:18:22;;;;;;;3.33;2.13;;;;;;;13.05;97.20;102370.34;10583842;28;20028;-74
2022/10/02 19:23:30;;;;;;;15.10;3.88;;;;;;;13.03;97.48;102366.94;10582375;28;20387;-74
2022/10/02 19:28:30;;;;;;;7.80;2.78;;;;;;;12.96;97.21;102385.84;10582414;28;20032;-74
2022/10/02 19:33:42;;;;;;;9.40;3.03;;;;;;;12.91;97.74;102387.38;10581170;28;20102;-74
2022/10/02 19:38:43;;;;;;;20.63;4.18;;;;;;;12.94;98.25;102385.16;10582184;28;20328;-74
2022/10/02 19:43:53;;;;;;;8.45;2.05;;;;;;;12.93;98.46;102388.06;10568933;28;20495;-75
2022/10/02 19:48:55;;;;;;;16.52;2.83;;;;;;;12.94;98.49;102403.34;10591615;28;20034;-74
2022/10/02 19:54:00;;;;;;;5.72;3.03;;;;;;;12.84;98.19;102397.28;10571871;28;20450;-74
2022/10/02 19:59:22;;;;;;;6.00;3.33;;;;;;;12.70;98.64;102396.13;10571043;28;20035;-74
2022/10/02 20:04:25;;;;;;;4.85;2.78;;;;;;;12.69;98.84;102405.31;10574272;28;20036;-74
2022/10/02 20:09:46;;;;;;;14.48;3.97;;;;;;;12.65;99.27;102418.41;10588708;28;20549;-74
2022/10/02 20:14:46;;;;;;;6.68;3.53;;;;;;;12.61;99.37;102424.38;10589027;28;20106;-73
2022/10/02 20:19:49;;;;;;;11.50;3.10;;;;;;;12.52;98.79;102443.41;10573732;28;20453;-74
2022/10/02 20:24:58;;;;;;;8.10;4.80;;;;;;;12.41;99.25;102443.78;10595674;28;20266;-74
2022/10/02 20:30:02;;;;;;;3.72;2.40;;;;;;;12.40;100.00;102433.06;10613561;28;20046;-74
2022/10/02 20:35:22;;;;;;;8.38;2.72;;;;;;;12.40;100.00;102450.19;10588638;28;20084;-74
2022/10/02 20:40:27;;;;;;;14.18;3.60;;;;;;;12.40;100.00;102458.34;10587682;28;20062;-74
2022/10/02 20:46:06;;;;;;;6.15;2.88;;;;;;;12.33;100.00;102465.50;10551704;28;20050;-74
2022/10/02 20:51:36;;;;;;;15.75;4.28;;;;;;;12.34;100.00;102484.31;10547335;28;20050;-74
2022/10/02 20:56:39;;;;;;;6.68;4.00;;;;;;;12.30;100.00;102490.28;10569530;28;20084;-74
2022/10/02 21:01:49;;;;;;;9.25;2.70;;;;;;;12.23;100.00;102486.56;10571289;28;20031;-74
2022/10/02 21:07:18;;;;;;;5.00;3.15;;;;;;;12.19;100.00;102477.03;10587822;28;20035;-75
2022/10/02 21:12:43;;;;;;;8.52;2.53;;;;;;;12.04;100.00;102488.56;10567842;28;20481;-74
2022/10/02 21:18:13;;;;;;;21.70;3.78;;;;;;;11.92;100.00;102499.94;10586299;28;20455;-74
2022/10/02 21:23:26;;;;;;;14.60;3.78;;;;;;;11.85;100.00;102511.44;10567576;28;20478;-74
2022/10/02 21:28:27;;;;;;;9.93;3.22;;;;;;;11.66;100.00;102511.72;10586338;28;20114;-74
2022/10/02 21:33:53;;;;;;;6.95;2.88;;;;;;;11.55;100.00;102517.44;10566929;28;20147;-74
2022/10/02 21:39:06;;;;;;;13.13;3.53;;;;;;;11.52;100.00;102517.75;10577725;28;20047;-74
2022/10/02 21:44:32;;;;;;;13.27;4.47;;;;;;;11.41;100.00;102519.75;10585466;28;20353;-74
2022/10/02 21:49:44;;;;;;;11.13;3.92;;;;;;;11.35;100.00;102520.41;10558023;28;20043;-74
2022/10/02 21:55:15;;;;;;;16.10;3.63;;;;;;;11.28;100.00;102527.50;10585476;28;20051;-74
2022/10/02 22:00:30;;;;;;;11.68;3.67;;;;;;;11.17;100.00;102535.94;10585608;28;20039;-74
2022/10/02 22:06:00;;;;;;;12.60;4.38;;;;;;;11.06;100.00;102537.03;10549766;28;20044;-75
2022/10/02 22:11:08;;;;;;;11.43;3.22;;;;;;;11.02;100.00;102529.41;10585978;28;20114;-74
2022/10/02 22:16:34;;;;;;;7.45;2.42;;;;;;;11.02;100.00;102537.53;10456183;28;20043;-75
2022/10/02 22:21:50;;;;;;;7.97;3.78;;;;;;;11.03;100.00;102541.94;10569576;28;20376;-74
2022/10/02 22:27:11;;;;;;;4.57;2.65;;;;;;;11.03;100.00;102536.53;10567518;28;20455;-74
2022/10/02 22:38:03;;;;;;;3.28;2.67;;;;;;;10.90;100.00;102550.50;10583227;28;20027;-75
2022/10/02 22:43:04;;;;;;;9.10;2.90;;;;;;;10.85;100.00;102559.13;10585090;28;20049;-74
2022/10/02 22:48:24;;;;;;;11.98;4.00;;;;;;;10.79;100.00;102556.19;10566118;28;20038;-74
2022/10/02 22:53:48;;;;;;;7.40;2.63;;;;;;;10.69;100.00;102567.97;10565580;28;20463;-74
2022/10/02 22:59:19;;;;;;;10.88;3.03;;;;;;;10.61;100.00;102584.16;10584645;28;20089;-74
2022/10/02 23:04:27;;;;;;;8.68;2.55;;;;;;;10.56;100.00;102567.53;10572709;28;20043;-74
2022/10/02 23:09:42;;;;;;;16.85;2.83;;;;;;;10.47;100.00;102576.59;10555659;28;20039;-75
2022/10/02 23:15:27;;;;;;;5.88;2.67;;;;;;;10.46;100.00;102572.16;10571941;28;20028;-75
2022/10/02 23:20:50;;;;;;;14.57;3.25;;;;;;;10.45;100.00;102565.91;10526694;28;20040;-75
2022/10/02 23:26:07;;;;;;;14.00;3.80;;;;;;;10.41;100.00;102574.50;10592099;28;20164;-75
2022/10/02 23:31:21;;;;;;;15.73;4.80;;;;;;;10.33;100.00;102560.88;10556114;28;20027;-74
2022/10/02 23:36:23;;;;;;;12.00;2.53;;;;;;;10.32;100.00;102572.72;10589405;28;20032;-74
2022/10/02 23:41:45;;;;;;;6.18;3.20;;;;;;;10.31;100.00;102569.19;10572454;28;20035;-74
2022/10/02 23:46:49;;;;;;;11.63;3.78;;;;;;;10.29;100.00;102567.63;10574193;28;20043;-74
2022/10/02 23:52:21;;;;;;;10.45;3.03;;;;;;;10.23;100.00;102566.34;10589375;28;20041;-74
2022/10/02 23:57:42;;;;;;;10.25;3.90;;;;;;;10.25;100.00;102576.03;10575530;28;20109;-74
